sensor_id;sensor_type;location;lat;lon;timestamp;pressure;altitude;pressure_sealevel;temperature;humidity
39209;BME280;24929;51.982;4.664;2022-10-20T00:01:53;77786.09;;;-143.36;nan
39209;BME280;24929;51.982;4.664;2022-10-20T00:04:19;77792.13;;;-143.36;nan
39209;BME280;24929;51.982;4.664;2022-10-20T00:06:44;77792.13;;;-143.36;nan
39209;BME280;24929;51.982;4.664;2022-10-20T00:09:10;77790.13;;;-143.36;nan
39209;BME280;24929;51.982;4.664;2022-10-20T00:11:35;77796.13;;;-143.36;nan
39209;BME280;24929;51.982;4.664;2022-10-20T00:14:02;77798.13;;;-143.36;nan
39209;BME280;24929;51.982;4.664;2022-10-20T00:16:29;77778.06;;;-143.36;nan
39209;BME280;24929;51.982;4.664;2022-10-20T00:18:56;77778.06;;;-143.36;nan
39209;BME280;24929;51.982;4.664;2022-10-20T00:21:23;77776.06;;;-143.36;nan
39209;BME280;24929;51.982;4.664;2022-10-20T00:23:49;77790.13;;;-143.36;nan
39209;BME280;24929;51.982;4.664;2022-10-20T00:26:22;77774.06;;;-143.36;nan
39209;BME280;24929;51.982;4.664;2022-10-20T00:28:48;77788.09;;;-143.36;nan
39209;BME280;24929;51.982;4.664;2022-10-20T00:31:14;77766.03;;;-143.36;nan
39209;BME280;24929;51.982;4.664;2022-10-20T00:33:40;77782.09;;;-143.36;nan
39209;BME280;24929;51.982;4.664;2022-10-20T00:36:07;77753.97;;;-143.36;nan
39209;BME280;24929;51.982;4.664;2022-10-20T00:38:34;77772.03;;;-143.36;nan
39209;BME280;24929;51.982;4.664;2022-10-20T00:40:59;77776.06;;;-143.36;nan
39209;BME280;24929;51.982;4.664;2022-10-20T00:43:48;77753.97;;;-143.36;nan
39209;BME280;24929;51.982;4.664;2022-10-20T00:46:26;77758.00;;;-143.36;nan
39209;BME280;24929;51.982;4.664;2022-10-20T00:48:58;77764.00;;;-143.36;nan
39209;BME280;24929;51.982;4.664;2022-10-20T00:51:26;77733.91;;;-143.36;nan
39209;BME280;24929;51.982;4.664;2022-10-20T00:53:56;77756.00;;;-143.36;nan
39209;BME280;24929;51.982;4.664;2022-10-20T00:56:23;77776.06;;;-143.36;nan
39209;BME280;24929;51.982;4.664;2022-10-20T00:58:49;77764.00;;;-143.36;nan
39209;BME280;24929;51.982;4.664;2022-10-20T01:01:14;77784.09;;;-143.36;nan
39209;BME280;24929;51.982;4.664;2022-10-20T01:03:45;77749.97;;;-143.36;nan
39209;BME280;24929;51.982;4.664;2022-10-20T01:06:13;77768.03;;;-143.36;nan
39209;BME280;24929;51.982;4.664;2022-10-20T01:08:39;77770.03;;;-143.36;nan
39209;BME280;24929;51.982;4.664;2022-10-20T01:14:03;77733.91;;;-143.36;nan
39209;BME280;24929;51.982;4.664;2022-10-20T01:16:42;77727.88;;;-143.36;nan
39209;BME280;24929;51.982;4.664;2022-10-20T01:22:25;77701.78;;;-143.36;nan
39209;BME280;24929;51.982;4.664;2022-10-20T01:25:35;77687.75;;;-143.36;nan
39209;BME280;24929;51.982;4.664;2022-10-20T01:28:13;77671.69;;;-143.36;nan
39209;BME280;24929;51.982;4.664;2022-10-20T01:30:44;77709.81;;;-143.36;nan
39209;BME280;24929;51.982;4.664;2022-10-20T01:41:01;77695.78;;;-143.36;nan
39209;BME280;24929;51.982;4.664;2022-10-20T01:43:33;77699.78;;;-143.36;nan
39209;BME280;24929;51.982;4.664;2022-10-20T01:46:00;77711.81;;;-143.36;nan
39209;BME280;24929;51.982;4.664;2022-10-20T01:48:30;77699.78;;;-143.36;nan
39209;BME280;24929;51.982;4.664;2022-10-20T01:50:57;77709.81;;;-143.36;nan
39209;BME280;24929;51.982;4.664;2022-10-20T01:53:23;77699.78;;;-143.36;nan
39209;BME280;24929;51.982;4.664;2022-10-20T01:55:50;77693.75;;;-143.36;nan
39209;BME280;24929;51.982;4.664;2022-10-20T02:00:57;77659.63;;;-143.36;nan
39209;BME280;24929;51.982;4.664;2022-10-20T02:06:29;77657.63;;;-143.36;nan
39209;BME280;24929;51.982;4.664;2022-10-20T02:09:00;77669.69;;;-143.36;nan
39209;BME280;24929;51.982;4.664;2022-10-20T02:11:38;77645.59;;;-143.36;nan
39209;BME280;24929;51.982;4.664;2022-10-20T02:14:06;77671.69;;;-143.36;nan
39209;BME280;24929;51.982;4.664;2022-10-20T02:16:41;77669.69;;;-143.36;nan
39209;BME280;24929;51.982;4.664;2022-10-20T02:19:10;77657.63;;;-143.36;nan
39209;BME280;24929;51.982;4.664;2022-10-20T02:21:37;77671.69;;;-143.36;nan
39209;BME280;24929;51.982;4.664;2022-10-20T02:24:05;77651.59;;;-143.36;nan
39209;BME280;24929;51.982;4.664;2022-10-20T02:26:34;77655.63;;;-143.36;nan
39209;BME280;24929;51.982;4.664;2022-10-20T02:29:05;77645.59;;;-143.36;nan
39209;BME280;24929;51.982;4.664;2022-10-20T02:31:34;77667.66;;;-143.36;nan
39209;BME280;24929;51.982;4.664;2022-10-20T02:34:00;77645.59;;;-143.36;nan
39209;BME280;24929;51.982;4.664;2022-10-20T02:36:28;77641.56;;;-143.36;nan
39209;BME280;24929;51.982;4.664;2022-10-20T02:38:54;77651.59;;;-143.36;nan
39209;BME280;24929;51.982;4.664;2022-10-20T02:41:20;77651.59;;;-143.36;nan
39209;BME280;24929;51.982;4.664;2022-10-20T02:43:45;77653.63;;;-143.36;nan
39209;BME280;24929;51.982;4.664;2022-10-20T02:46:10;77645.59;;;-143.36;nan
39209;BME280;24929;51.982;4.664;2022-10-20T02:48:36;77635.56;;;-143.36;nan
39209;BME280;24929;51.982;4.664;2022-10-20T02:51:03;77633.53;;;-143.36;nan
39209;BME280;24929;51.982;4.664;2022-10-20T02:53:30;77637.56;;;-143.36;nan
39209;BME280;24929;51.982;4.664;2022-10-20T02:55:55;77627.53;;;-143.36;nan
39209;BME280;24929;51.982;4.664;2022-10-20T02:58:20;77625.50;;;-143.36;nan
39209;BME280;24929;51.982;4.664;2022-10-20T03:00:48;77587.38;;;-143.36;nan
39209;BME280;24929;51.982;4.664;2022-10-20T03:03:15;77609.47;;;-143.36;nan
39209;BME280;24929;51.982;4.664;2022-10-20T03:05:40;77609.47;;;-143.36;nan
39209;BME280;24929;51.982;4.664;2022-10-20T03:08:08;77601.44;;;-143.36;nan
39209;BME280;24929;51.982;4.664;2022-10-20T03:10:34;77591.38;;;-143.36;nan
39209;BME280;24929;51.982;4.664;2022-10-20T03:13:01;77609.47;;;-143.36;nan
39209;BME280;24929;51.982;4.664;2022-10-20T03:15:26;77605.44;;;-143.36;nan
39209;BME280;24929;51.982;4.664;2022-10-20T03:17:51;77597.41;;;-143.36;nan
39209;BME280;24929;51.982;4.664;2022-10-20T03:20:17;77595.41;;;-143.36;nan
39209;BME280;24929;51.982;4.664;2022-10-20T03:22:42;77583.34;;;-143.36;nan
39209;BME280;24929;51.982;4.664;2022-10-20T03:25:07;77577.34;;;-143.36;nan
39209;BME280;24929;51.982;4.664;2022-10-20T03:27:33;77565.28;;;-143.36;nan
39209;BME280;24929;51.982;4.664;2022-10-20T03:29:58;77569.31;;;-143.36;nan
39209;BME280;24929;51.982;4.664;2022-10-20T03:32:23;77547.22;;;-143.36;nan
39209;BME280;24929;51.982;4.664;2022-10-20T03:34:49;77555.25;;;-143.36;nan
39209;BME280;24929;51.982;4.664;2022-10-20T03:37:14;77559.28;;;-143.36;nan
39209;BME280;24929;51.982;4.664;2022-10-20T03:39:40;77557.25;;;-143.36;nan
39209;BME280;24929;51.982;4.664;2022-10-20T03:42:05;77543.22;;;-143.36;nan
39209;BME280;24929;51.982;4.664;2022-10-20T03:44:30;77545.22;;;-143.36;nan
39209;BME280;24929;51.982;4.664;2022-10-20T03:46:56;77537.19;;;-143.36;nan
39209;BME280;24929;51.982;4.664;2022-10-20T03:49:21;77531.16;;;-143.36;nan
39209;BME280;24929;51.982;4.664;2022-10-20T03:51:46;77527.16;;;-143.36;nan
39209;BME280;24929;51.982;4.664;2022-10-20T03:54:12;77521.13;;;-143.36;nan
39209;BME280;24929;51.982;4.664;2022-10-20T03:56:37;77499.06;;;-143.36;nan
39209;BME280;24929;51.982;4.664;2022-10-20T03:59:02;77503.06;;;-143.36;nan
39209;BME280;24929;51.982;4.664;2022-10-20T04:01:30;77483.00;;;-143.36;nan
39209;BME280;24929;51.982;4.664;2022-10-20T04:03:56;77499.06;;;-143.36;nan
39209;BME280;24929;51.982;4.664;2022-10-20T04:06:21;77509.09;;;-143.36;nan
39209;BME280;24929;51.982;4.664;2022-10-20T04:08:47;77501.06;;;-143.36;nan
39209;BME280;24929;51.982;4.664;2022-10-20T04:11:12;77491.03;;;-143.36;nan
39209;BME280;24929;51.982;4.664;2022-10-20T04:13:38;77474.97;;;-143.36;nan
39209;BME280;24929;51.982;4.664;2022-10-20T04:16:03;77476.97;;;-143.36;nan
39209;BME280;24929;51.982;4.664;2022-10-20T04:18:29;77466.94;;;-143.36;nan
39209;BME280;24929;51.982;4.664;2022-10-20T04:20:54;77464.94;;;-143.36;nan
39209;BME280;24929;51.982;4.664;2022-10-20T04:23:20;77452.88;;;-143.36;nan
39209;BME280;24929;51.982;4.664;2022-10-20T04:25:45;77454.91;;;-143.36;nan
39209;BME280;24929;51.982;4.664;2022-10-20T04:28:13;77440.84;;;-143.36;nan
39209;BME280;24929;51.982;4.664;2022-10-20T04:30:39;77452.88;;;-143.36;nan
39209;BME280;24929;51.982;4.664;2022-10-20T04:33:05;77426.78;;;-143.36;nan
39209;BME280;24929;51.982;4.664;2022-10-20T04:35:30;77432.81;;;-143.36;nan
39209;BME280;24929;51.982;4.664;2022-10-20T04:37:55;77422.78;;;-143.36;nan
39209;BME280;24929;51.982;4.664;2022-10-20T04:40:21;77428.81;;;-143.36;nan
39209;BME280;24929;51.982;4.664;2022-10-20T04:42:46;77438.84;;;-143.36;nan
39209;BME280;24929;51.982;4.664;2022-10-20T04:45:11;77420.78;;;-143.36;nan
39209;BME280;24929;51.982;4.664;2022-10-20T04:47:37;77424.78;;;-143.36;nan
39209;BME280;24929;51.982;4.664;2022-10-20T04:50:03;77412.75;;;-143.36;nan
39209;BME280;24929;51.982;4.664;2022-10-20T04:52:29;77426.78;;;-143.36;nan
39209;BME280;24929;51.982;4.664;2022-10-20T04:54:54;77424.78;;;-143.36;nan
39209;BME280;24929;51.982;4.664;2022-10-20T04:57:20;77416.75;;;-143.36;nan
39209;BME280;24929;51.982;4.664;2022-10-20T04:59:45;77414.75;;;-143.36;nan
39209;BME280;24929;51.982;4.664;2022-10-20T05:02:10;77402.72;;;-143.36;nan
39209;BME280;24929;51.982;4.664;2022-10-20T05:04:36;77406.72;;;-143.36;nan
39209;BME280;24929;51.982;4.664;2022-10-20T05:07:01;77370.59;;;-143.36;nan
39209;BME280;24929;51.982;4.664;2022-10-20T05:09:26;77384.66;;;-143.36;nan
39209;BME280;24929;51.982;4.664;2022-10-20T05:11:52;77374.63;;;-143.36;nan
39209;BME280;24929;51.982;4.664;2022-10-20T05:14:18;77376.63;;;-143.36;nan
39209;BME280;24929;51.982;4.664;2022-10-20T05:16:43;77376.63;;;-143.36;nan
39209;BME280;24929;51.982;4.664;2022-10-20T05:19:09;77388.66;;;-143.36;nan
39209;BME280;24929;51.982;4.664;2022-10-20T05:28:25;77354.53;;;-143.36;nan
39209;BME280;24929;51.982;4.664;2022-10-20T05:30:50;77360.56;;;-143.36;nan
39209;BME280;24929;51.982;4.664;2022-10-20T05:33:15;77368.59;;;-143.36;nan
39209;BME280;24929;51.982;4.664;2022-10-20T05:35:41;77356.53;;;-143.36;nan
39209;BME280;24929;51.982;4.664;2022-10-20T05:38:06;77348.53;;;-143.36;nan
39209;BME280;24929;51.982;4.664;2022-10-20T05:40:31;77342.50;;;-143.36;nan
39209;BME280;24929;51.982;4.664;2022-10-20T05:42:57;77338.47;;;-143.36;nan
39209;BME280;24929;51.982;4.664;2022-10-20T05:45:22;77344.50;;;-143.36;nan
39209;BME280;24929;51.982;4.664;2022-10-20T05:47:47;77354.53;;;-143.36;nan
39209;BME280;24929;51.982;4.664;2022-10-20T05:50:13;77352.53;;;-143.36;nan
39209;BME280;24929;51.982;4.664;2022-10-20T05:52:38;77348.53;;;-143.36;nan
39209;BME280;24929;51.982;4.664;2022-10-20T05:55:04;77344.50;;;-143.36;nan
39209;BME280;24929;51.982;4.664;2022-10-20T05:57:29;77362.56;;;-143.36;nan
39209;BME280;24929;51.982;4.664;2022-10-20T05:59:54;77356.53;;;-143.36;nan
39209;BME280;24929;51.982;4.664;2022-10-20T06:02:20;77368.59;;;-143.36;nan
39209;BME280;24929;51.982;4.664;2022-10-20T06:04:46;77372.59;;;-143.36;nan
39209;BME280;24929;51.982;4.664;2022-10-20T06:07:11;77358.56;;;-143.36;nan
39209;BME280;24929;51.982;4.664;2022-10-20T06:09:37;77360.56;;;-143.36;nan
39209;BME280;24929;51.982;4.664;2022-10-20T06:12:04;77350.53;;;-143.36;nan
39209;BME280;24929;51.982;4.664;2022-10-20T06:14:29;77366.59;;;-143.36;nan
39209;BME280;24929;51.982;4.664;2022-10-20T06:16:55;77344.50;;;-143.36;nan
39209;BME280;24929;51.982;4.664;2022-10-20T06:19:22;77324.44;;;-143.36;nan
39209;BME280;24929;51.982;4.664;2022-10-20T06:21:48;77326.44;;;-143.36;nan
39209;BME280;24929;51.982;4.664;2022-10-20T06:24:14;77334.47;;;-143.36;nan
39209;BME280;24929;51.982;4.664;2022-10-20T06:26:41;77308.38;;;-143.36;nan
39209;BME280;24929;51.982;4.664;2022-10-20T06:29:11;77310.38;;;-143.36;nan
39209;BME280;24929;51.982;4.664;2022-10-20T06:31:42;77306.38;;;-143.36;nan
39209;BME280;24929;51.982;4.664;2022-10-20T06:34:16;77296.34;;;-143.36;nan
39209;BME280;24929;51.982;4.664;2022-10-20T06:36:42;77328.44;;;-143.36;nan
39209;BME280;24929;51.982;4.664;2022-10-20T06:39:11;77326.44;;;-143.36;nan
39209;BME280;24929;51.982;4.664;2022-10-20T06:41:36;77346.50;;;-143.36;nan
39209;BME280;24929;51.982;4.664;2022-10-20T06:44:02;77338.47;;;-143.36;nan
39209;BME280;24929;51.982;4.664;2022-10-20T06:46:29;77308.38;;;-143.36;nan
39209;BME280;24929;51.982;4.664;2022-10-20T06:48:55;77310.38;;;-143.36;nan
39209;BME280;24929;51.982;4.664;2022-10-20T06:51:21;77300.34;;;-143.36;nan
39209;BME280;24929;51.982;4.664;2022-10-20T06:53:47;77288.31;;;-143.36;nan
39209;BME280;24929;51.982;4.664;2022-10-20T06:56:15;77272.25;;;-143.36;nan
39209;BME280;24929;51.982;4.664;2022-10-20T06:58:42;77278.28;;;-143.36;nan
39209;BME280;24929;51.982;4.664;2022-10-20T07:01:12;77268.25;;;-143.36;nan
39209;BME280;24929;51.982;4.664;2022-10-20T07:03:42;77258.19;;;-143.36;nan
39209;BME280;24929;51.982;4.664;2022-10-20T07:06:13;77254.19;;;-143.36;nan
39209;BME280;24929;51.982;4.664;2022-10-20T07:08:38;77264.22;;;-143.36;nan
39209;BME280;24929;51.982;4.664;2022-10-20T07:11:10;77242.16;;;-143.36;nan
39209;BME280;24929;51.982;4.664;2022-10-20T07:13:36;77240.13;;;-143.36;nan
39209;BME280;24929;51.982;4.664;2022-10-20T07:16:03;77234.13;;;-143.36;nan
39209;BME280;24929;51.982;4.664;2022-10-20T07:18:30;77234.13;;;-143.36;nan
39209;BME280;24929;51.982;4.664;2022-10-20T07:21:00;77212.03;;;-143.36;nan
39209;BME280;24929;51.982;4.664;2022-10-20T07:23:27;77230.09;;;-143.36;nan
39209;BME280;24929;51.982;4.664;2022-10-20T07:26:08;77193.97;;;-143.36;nan
39209;BME280;24929;51.982;4.664;2022-10-20T07:28:36;77208.03;;;-143.36;nan
39209;BME280;24929;51.982;4.664;2022-10-20T07:31:06;77220.06;;;-143.36;nan
39209;BME280;24929;51.982;4.664;2022-10-20T07:33:33;77206.00;;;-143.36;nan
39209;BME280;24929;51.982;4.664;2022-10-20T07:35:58;77202.00;;;-143.36;nan
39209;BME280;24929;51.982;4.664;2022-10-20T07:38:24;77195.97;;;-143.36;nan
39209;BME280;24929;51.982;4.664;2022-10-20T07:40:49;77181.94;;;-143.36;nan
39209;BME280;24929;51.982;4.664;2022-10-20T07:43:14;77167.88;;;-143.36;nan
39209;BME280;24929;51.982;4.664;2022-10-20T07:45:40;77185.94;;;-143.36;nan
39209;BME280;24929;51.982;4.664;2022-10-20T07:48:06;77177.91;;;-143.36;nan
39209;BME280;24929;51.982;4.664;2022-10-20T07:50:34;77191.97;;;-143.36;nan
39209;BME280;24929;51.982;4.664;2022-10-20T07:53:00;77187.94;;;-143.36;nan
39209;BME280;24929;51.982;4.664;2022-10-20T07:55:25;77179.94;;;-143.36;nan
39209;BME280;24929;51.982;4.664;2022-10-20T07:57:50;77165.88;;;-143.36;nan
39209;BME280;24929;51.982;4.664;2022-10-20T08:00:16;77159.84;;;-143.36;nan
39209;BME280;24929;51.982;4.664;2022-10-20T08:02:41;77167.88;;;-143.36;nan
39209;BME280;24929;51.982;4.664;2022-10-20T08:05:07;77169.88;;;-143.36;nan
39209;BME280;24929;51.982;4.664;2022-10-20T08:07:33;77173.91;;;-143.36;nan
39209;BME280;24929;51.982;4.664;2022-10-20T08:09:59;77149.81;;;-143.36;nan
39209;BME280;24929;51.982;4.664;2022-10-20T08:12:24;77147.81;;;-143.36;nan
39209;BME280;24929;51.982;4.664;2022-10-20T08:14:50;77139.78;;;-143.36;nan
39209;BME280;24929;51.982;4.664;2022-10-20T08:17:17;77125.72;;;-143.36;nan
39209;BME280;24929;51.982;4.664;2022-10-20T08:19:42;77121.72;;;-143.36;nan
39209;BME280;24929;51.982;4.664;2022-10-20T08:22:08;77133.75;;;-143.36;nan
39209;BME280;24929;51.982;4.664;2022-10-20T08:24:33;77125.72;;;-143.36;nan
39209;BME280;24929;51.982;4.664;2022-10-20T08:27:00;77123.72;;;-143.36;nan
39209;BME280;24929;51.982;4.664;2022-10-20T08:29:25;77089.59;;;-143.36;nan
39209;BME280;24929;51.982;4.664;2022-10-20T08:31:51;77089.59;;;-143.36;nan
39209;BME280;24929;51.982;4.664;2022-10-20T08:34:16;77099.66;;;-143.36;nan
39209;BME280;24929;51.982;4.664;2022-10-20T08:36:41;77077.56;;;-143.36;nan
39209;BME280;24929;51.982;4.664;2022-10-20T08:39:07;77057.50;;;-143.36;nan
39209;BME280;24929;51.982;4.664;2022-10-20T08:41:36;77059.50;;;-143.36;nan
39209;BME280;24929;51.982;4.664;2022-10-20T08:44:05;77023.38;;;-143.36;nan
39209;BME280;24929;51.982;4.664;2022-10-20T08:46:35;77021.38;;;-143.36;nan
39209;BME280;24929;51.982;4.664;2022-10-20T08:49:02;77019.38;;;-143.36;nan
39209;BME280;24929;51.982;4.664;2022-10-20T08:51:35;76997.28;;;-143.36;nan
39209;BME280;24929;51.982;4.664;2022-10-20T08:54:03;77007.31;;;-143.36;nan
39209;BME280;24929;51.982;4.664;2022-10-20T08:56:32;77001.31;;;-143.36;nan
39209;BME280;24929;51.982;4.664;2022-10-20T08:58:59;76995.28;;;-143.36;nan
39209;BME280;24929;51.982;4.664;2022-10-20T09:01:28;76967.19;;;-143.36;nan
39209;BME280;24929;51.982;4.664;2022-10-20T09:04:03;76965.19;;;-143.36;nan
39209;BME280;24929;51.982;4.664;2022-10-20T09:06:28;76983.25;;;-143.36;nan
39209;BME280;24929;51.982;4.664;2022-10-20T09:08:55;76971.19;;;-143.36;nan
39209;BME280;24929;51.982;4.664;2022-10-20T09:11:24;76939.09;;;-143.36;nan
39209;BME280;24929;51.982;4.664;2022-10-20T09:13:52;76941.09;;;-143.36;nan
39209;BME280;24929;51.982;4.664;2022-10-20T09:16:32;76890.91;;;-143.36;nan
39209;BME280;24929;51.982;4.664;2022-10-20T09:19:03;76908.97;;;-143.36;nan
39209;BME280;24929;51.982;4.664;2022-10-20T09:21:30;76894.94;;;-143.36;nan
39209;BME280;24929;51.982;4.664;2022-10-20T09:24:03;76866.84;;;-143.36;nan
39209;BME280;24929;51.982;4.664;2022-10-20T09:26:46;76860.81;;;-143.36;nan
39209;BME280;24929;51.982;4.664;2022-10-20T09:29:14;76898.94;;;-143.36;nan
39209;BME280;24929;51.982;4.664;2022-10-20T09:31:43;76862.81;;;-143.36;nan
39209;BME280;24929;51.982;4.664;2022-10-20T09:34:30;76850.78;;;-143.36;nan
39209;BME280;24929;51.982;4.664;2022-10-20T09:42:18;76834.72;;;-143.36;nan
39209;BME280;24929;51.982;4.664;2022-10-20T09:44:55;76812.66;;;-143.36;nan
39209;BME280;24929;51.982;4.664;2022-10-20T09:47:22;76820.69;;;-143.36;nan
39209;BME280;24929;51.982;4.664;2022-10-20T09:49:53;76792.59;;;-143.36;nan
39209;BME280;24929;51.982;4.664;2022-10-20T09:52:24;76782.53;;;-143.36;nan
39209;BME280;24929;51.982;4.664;2022-10-20T09:54:59;76762.47;;;-143.36;nan
39209;BME280;24929;51.982;4.664;2022-10-20T09:57:26;76804.63;;;-143.36;nan
39209;BME280;24929;51.982;4.664;2022-10-20T09:59:52;76778.53;;;-143.36;nan
39209;BME280;24929;51.982;4.664;2022-10-20T10:04:51;76770.50;;;-143.36;nan
39209;BME280;24929;51.982;4.664;2022-10-20T10:10:06;76738.41;;;-143.36;nan
39209;BME280;24929;51.982;4.664;2022-10-20T10:12:32;76764.50;;;-143.36;nan
39209;BME280;24929;51.982;4.664;2022-10-20T10:14:59;76758.47;;;-143.36;nan
39209;BME280;24929;51.982;4.664;2022-10-20T10:17:39;76718.31;;;-143.36;nan
39209;BME280;24929;51.982;4.664;2022-10-20T10:20:35;76738.41;;;-143.36;nan
39209;BME280;24929;51.982;4.664;2022-10-20T10:23:17;76752.44;;;-143.36;nan
39209;BME280;24929;51.982;4.664;2022-10-20T10:25:43;76790.56;;;-143.36;nan
39209;BME280;24929;51.982;4.664;2022-10-20T10:28:31;76746.44;;;-143.36;nan
39209;BME280;24929;51.982;4.664;2022-10-20T10:31:09;76722.34;;;-143.36;nan
39209;BME280;24929;51.982;4.664;2022-10-20T10:33:37;76742.41;;;-143.36;nan
39209;BME280;24929;51.982;4.664;2022-10-20T10:36:05;76736.38;;;-143.36;nan
39209;BME280;24929;51.982;4.664;2022-10-20T10:38:31;76724.34;;;-143.36;nan
39209;BME280;24929;51.982;4.664;2022-10-20T10:41:08;76684.22;;;-143.36;nan
39209;BME280;24929;51.982;4.664;2022-10-20T10:43:53;76716.31;;;-143.36;nan
39209;BME280;24929;51.982;4.664;2022-10-20T10:46:29;76692.25;;;-143.36;nan
39209;BME280;24929;51.982;4.664;2022-10-20T10:54:47;76718.31;;;-143.36;nan
39209;BME280;24929;51.982;4.664;2022-10-20T11:00:56;76678.19;;;-143.36;nan
39209;BME280;24929;51.982;4.664;2022-10-20T11:03:43;76680.19;;;-143.36;nan
39209;BME280;24929;51.982;4.664;2022-10-20T11:08:51;76706.28;;;-143.36;nan
39209;BME280;24929;51.982;4.664;2022-10-20T11:11:31;76706.28;;;-143.36;nan
39209;BME280;24929;51.982;4.664;2022-10-20T11:17:18;76650.09;;;-143.36;nan
39209;BME280;24929;51.982;4.664;2022-10-20T11:20:09;76672.19;;;-143.36;nan
39209;BME280;24929;51.982;4.664;2022-10-20T11:28:02;76579.88;;;-143.36;nan
39209;BME280;24929;51.982;4.664;2022-10-20T11:30:32;76571.84;;;-143.36;nan
39209;BME280;24929;51.982;4.664;2022-10-20T11:33:03;76567.81;;;-143.36;nan
39209;BME280;24929;51.982;4.664;2022-10-20T11:35:41;76531.69;;;-143.36;nan
39209;BME280;24929;51.982;4.664;2022-10-20T11:38:26;76517.66;;;-143.36;nan
39209;BME280;24929;51.982;4.664;2022-10-20T11:46:37;76575.84;;;-143.36;nan
39209;BME280;24929;51.982;4.664;2022-10-20T11:49:05;76593.91;;;-143.36;nan
39209;BME280;24929;51.982;4.664;2022-10-20T12:00:19;76573.84;;;-143.36;nan
39209;BME280;24929;51.982;4.664;2022-10-20T12:05:34;76543.75;;;-143.36;nan
39209;BME280;24929;51.982;4.664;2022-10-20T12:11:48;76543.75;;;-143.36;nan
39209;BME280;24929;51.982;4.664;2022-10-20T12:19:28;76549.75;;;-143.36;nan
39209;BME280;24929;51.982;4.664;2022-10-20T12:24:36;76539.72;;;-143.36;nan
39209;BME280;24929;51.982;4.664;2022-10-20T12:34:47;76547.75;;;-143.36;nan
39209;BME280;24929;51.982;4.664;2022-10-20T12:39:42;76545.75;;;-143.36;nan
39209;BME280;24929;51.982;4.664;2022-10-20T12:42:18;76517.66;;;-143.36;nan
39209;BME280;24929;51.982;4.664;2022-10-20T12:44:45;76545.75;;;-143.36;nan
39209;BME280;24929;51.982;4.664;2022-10-20T12:47:18;76509.63;;;-143.36;nan
39209;BME280;24929;51.982;4.664;2022-10-20T12:49:54;76515.66;;;-143.36;nan
39209;BME280;24929;51.982;4.664;2022-10-20T12:52:26;76497.59;;;-143.36;nan
39209;BME280;24929;51.982;4.664;2022-10-20T12:54:55;76495.59;;;-143.36;nan
39209;BME280;24929;51.982;4.664;2022-10-20T12:59:51;76501.59;;;-143.36;nan
39209;BME280;24929;51.982;4.664;2022-10-20T13:10:32;76451.44;;;-143.36;nan
39209;BME280;24929;51.982;4.664;2022-10-20T13:15:42;76401.25;;;-143.36;nan
39209;BME280;24929;51.982;4.664;2022-10-20T13:20:44;76365.16;;;-143.36;nan
39209;BME280;24929;51.982;4.664;2022-10-20T13:23:41;76300.94;;;-143.36;nan
39209;BME280;24929;51.982;4.664;2022-10-20T13:26:22;76262.81;;;-143.36;nan
39209;BME280;24929;51.982;4.664;2022-10-20T13:28:50;76268.81;;;-143.36;nan
39209;BME280;24929;51.982;4.664;2022-10-20T13:31:30;76240.75;;;-143.36;nan
39209;BME280;24929;51.982;4.664;2022-10-20T13:34:40;76220.66;;;-143.36;nan
39209;BME280;24929;51.982;4.664;2022-10-20T13:42:50;76190.56;;;-143.36;nan
39209;BME280;24929;51.982;4.664;2022-10-20T13:50:25;76182.53;;;-143.36;nan
39209;BME280;24929;51.982;4.664;2022-10-20T13:52:57;76168.50;;;-143.36;nan
39209;BME280;24929;51.982;4.664;2022-10-20T13:55:30;76172.50;;;-143.36;nan
39209;BME280;24929;51.982;4.664;2022-10-20T13:57:58;76172.50;;;-143.36;nan
39209;BME280;24929;51.982;4.664;2022-10-20T14:00:29;76122.34;;;-143.36;nan
39209;BME280;24929;51.982;4.664;2022-10-20T14:02:58;76152.44;;;-143.36;nan
39209;BME280;24929;51.982;4.664;2022-10-20T14:05:25;76142.41;;;-143.36;nan
39209;BME280;24929;51.982;4.664;2022-10-20T14:07:51;76112.31;;;-143.36;nan
39209;BME280;24929;51.982;4.664;2022-10-20T14:10:33;76058.13;;;-143.36;nan
39209;BME280;24929;51.982;4.664;2022-10-20T14:13:02;76062.16;;;-143.36;nan
39209;BME280;24929;51.982;4.664;2022-10-20T14:15:32;75997.94;;;-143.36;nan
39209;BME280;24929;51.982;4.664;2022-10-20T14:18:04;75997.94;;;-143.36;nan
39209;BME280;24929;51.982;4.664;2022-10-20T14:20:32;76003.97;;;-143.36;nan
39209;BME280;24929;51.982;4.664;2022-10-20T14:22:59;76001.97;;;-143.36;nan
39209;BME280;24929;51.982;4.664;2022-10-20T14:25:26;76005.97;;;-143.36;nan
39209;BME280;24929;51.982;4.664;2022-10-20T14:27:54;76003.97;;;-143.36;nan
39209;BME280;24929;51.982;4.664;2022-10-20T14:30:20;76014.00;;;-143.36;nan
39209;BME280;24929;51.982;4.664;2022-10-20T14:32:46;76048.09;;;-143.36;nan
39209;BME280;24929;51.982;4.664;2022-10-20T14:37:40;76092.25;;;-143.36;nan
39209;BME280;24929;51.982;4.664;2022-10-20T14:40:32;76074.19;;;-143.36;nan
39209;BME280;24929;51.982;4.664;2022-10-20T14:43:13;76088.25;;;-143.36;nan
39209;BME280;24929;51.982;4.664;2022-10-20T14:45:51;76076.19;;;-143.36;nan
39209;BME280;24929;51.982;4.664;2022-10-20T14:48:17;76110.31;;;-143.36;nan
39209;BME280;24929;51.982;4.664;2022-10-20T14:50:42;76100.28;;;-143.36;nan
39209;BME280;24929;51.982;4.664;2022-10-20T14:55:41;76110.31;;;-143.36;nan
39209;BME280;24929;51.982;4.664;2022-10-20T15:01:25;76070.19;;;-143.36;nan
39209;BME280;24929;51.982;4.664;2022-10-20T15:06:29;76114.31;;;-143.36;nan
39209;BME280;24929;51.982;4.664;2022-10-20T15:08:55;76108.31;;;-143.36;nan
39209;BME280;24929;51.982;4.664;2022-10-20T15:11:23;76092.25;;;-143.36;nan
39209;BME280;24929;51.982;4.664;2022-10-20T15:13:54;76064.16;;;-143.36;nan
39209;BME280;24929;51.982;4.664;2022-10-20T15:16:33;76050.13;;;-143.36;nan
39209;BME280;24929;51.982;4.664;2022-10-20T15:24:31;76042.09;;;-143.36;nan
39209;BME280;24929;51.982;4.664;2022-10-20T15:26:56;76046.09;;;-143.36;nan
39209;BME280;24929;51.982;4.664;2022-10-20T15:29:22;76050.13;;;-143.36;nan